sensor_id;sensor_type;location;lat;lon;timestamp;P1;durP1;ratioP1;P2;durP2;ratioP2
1887;SDS011;944;51.574;6.980;2024-02-21T00:07:00;42.60;;;15.40;;
1887;SDS011;944;51.574;6.980;2024-02-21T00:09:38;51.67;;;17.63;;
1887;SDS011;944;51.574;6.980;2024-02-21T00:12:49;50.67;;;17.60;;
1887;SDS011;944;51.574;6.980;2024-02-21T00:15:22;47.30;;;17.63;;
1887;SDS011;944;51.574;6.980;2024-02-21T00:18:41;51.13;;;16.87;;
1887;SDS011;944;51.574;6.980;2024-02-21T00:25:34;56.40;;;17.10;;
1887;SDS011;944;51.574;6.980;2024-02-21T00:28:42;49.20;;;16.10;;
1887;SDS011;944;51.574;6.980;2024-02-21T00:31:31;45.10;;;16.20;;
1887;SDS011;944;51.574;6.980;2024-02-21T00:34:30;45.67;;;16.90;;
1887;SDS011;944;51.574;6.980;2024-02-21T00:37:04;43.87;;;16.30;;
1887;SDS011;944;51.574;6.980;2024-02-21T00:39:41;51.60;;;18.30;;
1887;SDS011;944;51.574;6.980;2024-02-21T00:42:28;45.27;;;17.33;;
1887;SDS011;944;51.574;6.980;2024-02-21T00:44:56;41.27;;;16.57;;
1887;SDS011;944;51.574;6.980;2024-02-21T00:47:29;44.57;;;17.20;;
1887;SDS011;944;51.574;6.980;2024-02-21T00:49:59;41.53;;;16.50;;
1887;SDS011;944;51.574;6.980;2024-02-21T00:53:03;42.23;;;17.13;;
1887;SDS011;944;51.574;6.980;2024-02-21T00:56:29;37.83;;;15.30;;
1887;SDS011;944;51.574;6.980;2024-02-21T01:10:40;61.73;;;18.07;;
1887;SDS011;944;51.574;6.980;2024-02-21T01:18:03;46.73;;;17.40;;
1887;SDS011;944;51.574;6.980;2024-02-21T01:21:23;42.50;;;16.43;;
1887;SDS011;944;51.574;6.980;2024-02-21T01:24:25;45.40;;;17.30;;
1887;SDS011;944;51.574;6.980;2024-02-21T01:27:21;48.27;;;17.60;;
1887;SDS011;944;51.574;6.980;2024-02-21T01:30:23;39.87;;;15.30;;
1887;SDS011;944;51.574;6.980;2024-02-21T01:33:08;36.47;;;15.60;;
1887;SDS011;944;51.574;6.980;2024-02-21T01:35:48;45.23;;;16.23;;
1887;SDS011;944;51.574;6.980;2024-02-21T01:38:27;36.90;;;14.60;;
1887;SDS011;944;51.574;6.980;2024-02-21T01:41:18;35.97;;;15.83;;
1887;SDS011;944;51.574;6.980;2024-02-21T01:47:32;43.00;;;15.33;;
1887;SDS011;944;51.574;6.980;2024-02-21T01:50:20;35.57;;;14.97;;
1887;SDS011;944;51.574;6.980;2024-02-21T01:53:09;42.00;;;14.67;;
1887;SDS011;944;51.574;6.980;2024-02-21T01:55:46;44.13;;;15.10;;
1887;SDS011;944;51.574;6.980;2024-02-21T01:58:23;39.37;;;14.30;;
1887;SDS011;944;51.574;6.980;2024-02-21T02:01:24;40.13;;;14.80;;
1887;SDS011;944;51.574;6.980;2024-02-21T02:04:12;37.03;;;14.67;;
1887;SDS011;944;51.574;6.980;2024-02-21T02:06:48;36.83;;;14.43;;
1887;SDS011;944;51.574;6.980;2024-02-21T02:09:22;31.53;;;13.47;;
1887;SDS011;944;51.574;6.980;2024-02-21T02:11:55;35.27;;;13.40;;
1887;SDS011;944;51.574;6.980;2024-02-21T02:14:31;32.57;;;13.70;;
1887;SDS011;944;51.574;6.980;2024-02-21T02:17:07;32.80;;;13.50;;
1887;SDS011;944;51.574;6.980;2024-02-21T02:19:57;43.87;;;14.43;;
1887;SDS011;944;51.574;6.980;2024-02-21T02:22:39;43.30;;;13.63;;
1887;SDS011;944;51.574;6.980;2024-02-21T02:25:30;25.77;;;13.20;;
1887;SDS011;944;51.574;6.980;2024-02-21T02:28:32;23.70;;;12.17;;
1887;SDS011;944;51.574;6.980;2024-02-21T02:31:09;26.93;;;12.83;;
1887;SDS011;944;51.574;6.980;2024-02-21T02:34:00;36.80;;;15.37;;
1887;SDS011;944;51.574;6.980;2024-02-21T02:36:40;34.13;;;13.33;;
1887;SDS011;944;51.574;6.980;2024-02-21T02:39:20;39.23;;;14.27;;
1887;SDS011;944;51.574;6.980;2024-02-21T02:42:10;30.07;;;12.50;;
1887;SDS011;944;51.574;6.980;2024-02-21T02:44:39;24.33;;;13.10;;
1887;SDS011;944;51.574;6.980;2024-02-21T02:47:22;33.33;;;12.87;;
1887;SDS011;944;51.574;6.980;2024-02-21T02:49:53;27.00;;;12.50;;
1887;SDS011;944;51.574;6.980;2024-02-21T02:52:35;22.83;;;11.87;;
1887;SDS011;944;51.574;6.980;2024-02-21T02:57:52;30.80;;;14.30;;
1887;SDS011;944;51.574;6.980;2024-02-21T03:00:21;29.23;;;12.23;;
1887;SDS011;944;51.574;6.980;2024-02-21T03:03:03;30.23;;;13.23;;
1887;SDS011;944;51.574;6.980;2024-02-21T03:05:46;34.20;;;13.87;;
1887;SDS011;944;51.574;6.980;2024-02-21T03:08:27;34.27;;;13.27;;
1887;SDS011;944;51.574;6.980;2024-02-21T03:11:36;33.50;;;13.23;;
1887;SDS011;944;51.574;6.980;2024-02-21T03:14:27;42.63;;;14.17;;
1887;SDS011;944;51.574;6.980;2024-02-21T03:17:02;38.17;;;15.10;;
1887;SDS011;944;51.574;6.980;2024-02-21T03:19:48;38.10;;;12.97;;
1887;SDS011;944;51.574;6.980;2024-02-21T03:22:17;42.97;;;15.00;;
1887;SDS011;944;51.574;6.980;2024-02-21T03:25:52;32.40;;;12.40;;
1887;SDS011;944;51.574;6.980;2024-02-21T03:28:06;33.73;;;13.83;;
1887;SDS011;944;51.574;6.980;2024-02-21T03:30:43;33.33;;;12.10;;
1887;SDS011;944;51.574;6.980;2024-02-21T03:33:13;29.47;;;13.40;;
1887;SDS011;944;51.574;6.980;2024-02-21T03:35:51;33.57;;;14.07;;
1887;SDS011;944;51.574;6.980;2024-02-21T03:38:27;40.90;;;13.80;;
1887;SDS011;944;51.574;6.980;2024-02-21T03:41:04;28.83;;;13.13;;
1887;SDS011;944;51.574;6.980;2024-02-21T03:43:43;38.43;;;13.03;;
1887;SDS011;944;51.574;6.980;2024-02-21T03:46:24;41.03;;;14.20;;
1887;SDS011;944;51.574;6.980;2024-02-21T03:48:57;36.63;;;13.67;;
1887;SDS011;944;51.574;6.980;2024-02-21T03:51:30;38.40;;;14.80;;
1887;SDS011;944;51.574;6.980;2024-02-21T03:54:04;36.90;;;12.77;;
1887;SDS011;944;51.574;6.980;2024-02-21T03:56:39;39.67;;;14.67;;
1887;SDS011;944;51.574;6.980;2024-02-21T03:59:16;28.47;;;13.10;;
1887;SDS011;944;51.574;6.980;2024-02-21T04:02:11;40.80;;;13.50;;
1887;SDS011;944;51.574;6.980;2024-02-21T04:04:42;28.83;;;13.80;;
1887;SDS011;944;51.574;6.980;2024-02-21T04:07:18;34.67;;;14.33;;
1887;SDS011;944;51.574;6.980;2024-02-21T04:09:55;39.57;;;13.80;;
1887;SDS011;944;51.574;6.980;2024-02-21T04:12:24;57.53;;;14.80;;
1887;SDS011;944;51.574;6.980;2024-02-21T04:15:02;36.40;;;13.93;;
1887;SDS011;944;51.574;6.980;2024-02-21T04:17:50;30.00;;;13.23;;
1887;SDS011;944;51.574;6.980;2024-02-21T04:20:51;34.50;;;14.57;;
1887;SDS011;944;51.574;6.980;2024-02-21T04:23:27;36.30;;;14.03;;
1887;SDS011;944;51.574;6.980;2024-02-21T04:25:56;36.47;;;13.30;;
1887;SDS011;944;51.574;6.980;2024-02-21T04:28:44;35.97;;;13.57;;
1887;SDS011;944;51.574;6.980;2024-02-21T04:31:14;31.13;;;13.77;;
1887;SDS011;944;51.574;6.980;2024-02-21T04:37:29;42.53;;;14.83;;
1887;SDS011;944;51.574;6.980;2024-02-21T04:40:14;37.50;;;13.40;;
1887;SDS011;944;51.574;6.980;2024-02-21T04:42:49;30.07;;;13.97;;
1887;SDS011;944;51.574;6.980;2024-02-21T04:45:25;26.80;;;12.70;;
1887;SDS011;944;51.574;6.980;2024-02-21T04:48:25;33.70;;;12.20;;
1887;SDS011;944;51.574;6.980;2024-02-21T04:51:33;35.73;;;12.73;;
1887;SDS011;944;51.574;6.980;2024-02-21T04:54:41;34.30;;;12.30;;
1887;SDS011;944;51.574;6.980;2024-02-21T04:57:18;30.10;;;13.17;;
1887;SDS011;944;51.574;6.980;2024-02-21T04:59:56;28.80;;;12.10;;
1887;SDS011;944;51.574;6.980;2024-02-21T05:02:26;28.67;;;11.53;;
1887;SDS011;944;51.574;6.980;2024-02-21T05:05:10;33.53;;;12.07;;
1887;SDS011;944;51.574;6.980;2024-02-21T05:07:56;33.17;;;11.50;;
1887;SDS011;944;51.574;6.980;2024-02-21T05:11:04;30.70;;;11.17;;
1887;SDS011;944;51.574;6.980;2024-02-21T05:13:47;28.57;;;11.30;;
1887;SDS011;944;51.574;6.980;2024-02-21T05:16:32;30.63;;;11.83;;
1887;SDS011;944;51.574;6.980;2024-02-21T05:30:31;31.20;;;12.30;;
1887;SDS011;944;51.574;6.980;2024-02-21T05:33:03;25.37;;;11.90;;
1887;SDS011;944;51.574;6.980;2024-02-21T05:35:38;27.83;;;11.03;;
1887;SDS011;944;51.574;6.980;2024-02-21T05:38:30;25.70;;;9.70;;
1887;SDS011;944;51.574;6.980;2024-02-21T05:41:09;22.40;;;10.20;;
1887;SDS011;944;51.574;6.980;2024-02-21T05:43:59;27.60;;;10.47;;
1887;SDS011;944;51.574;6.980;2024-02-21T05:46:29;24.40;;;9.77;;
1887;SDS011;944;51.574;6.980;2024-02-21T05:49:08;29.47;;;9.80;;
1887;SDS011;944;51.574;6.980;2024-02-21T10:32:59;12.17;;;4.17;;
1887;SDS011;944;51.574;6.980;2024-02-21T10:40:27;12.87;;;4.70;;
1887;SDS011;944;51.574;6.980;2024-02-21T11:28:59;11.30;;;3.87;;
1887;SDS011;944;51.574;6.980;2024-02-21T12:30:33;9.20;;;4.10;;
1887;SDS011;944;51.574;6.980;2024-02-21T18:46:56;14.97;;;5.80;;
1887;SDS011;944;51.574;6.980;2024-02-21T18:57:55;15.80;;;5.53;;
1887;SDS011;944;51.574;6.980;2024-02-21T19:01:21;23.37;;;6.23;;
1887;SDS011;944;51.574;6.980;2024-02-21T19:37:18;19.73;;;6.60;;
1887;SDS011;944;51.574;6.980;2024-02-21T19:43:52;11.80;;;5.30;;
1887;SDS011;944;51.574;6.980;2024-02-21T19:57:20;13.80;;;6.03;;
1887;SDS011;944;51.574;6.980;2024-02-21T20:00:06;14.60;;;5.37;;
1887;SDS011;944;51.574;6.980;2024-02-21T20:03:06;16.43;;;6.37;;
1887;SDS011;944;51.574;6.980;2024-02-21T20:06:15;10.90;;;5.80;;
1887;SDS011;944;51.574;6.980;2024-02-21T20:13:08;23.27;;;6.77;;
1887;SDS011;944;51.574;6.980;2024-02-21T20:15:55;11.50;;;5.07;;
1887;SDS011;944;51.574;6.980;2024-02-21T20:18:35;14.00;;;5.87;;
1887;SDS011;944;51.574;6.980;2024-02-21T20:21:30;12.90;;;6.03;;
1887;SDS011;944;51.574;6.980;2024-02-21T20:24:11;10.00;;;5.33;;
1887;SDS011;944;51.574;6.980;2024-02-21T20:27:01;13.00;;;5.20;;
1887;SDS011;944;51.574;6.980;2024-02-21T20:36:34;10.20;;;6.70;;
1887;SDS011;944;51.574;6.980;2024-02-21T20:40:07;13.67;;;6.60;;
1887;SDS011;944;51.574;6.980;2024-02-21T20:43:25;14.43;;;7.00;;
1887;SDS011;944;51.574;6.980;2024-02-21T20:50:09;17.27;;;7.10;;
1887;SDS011;944;51.574;6.980;2024-02-21T20:52:54;19.33;;;7.57;;
1887;SDS011;944;51.574;6.980;2024-02-21T20:55:55;13.53;;;7.40;;
1887;SDS011;944;51.574;6.980;2024-02-21T20:58:43;12.83;;;7.70;;
1887;SDS011;944;51.574;6.980;2024-02-21T21:01:27;23.20;;;8.10;;
1887;SDS011;944;51.574;6.980;2024-02-21T21:07:13;19.73;;;7.10;;
1887;SDS011;944;51.574;6.980;2024-02-21T21:10:03;23.70;;;8.80;;
1887;SDS011;944;51.574;6.980;2024-02-21T21:12:50;12.07;;;7.00;;
1887;SDS011;944;51.574;6.980;2024-02-21T21:15:38;23.50;;;8.80;;
1887;SDS011;944;51.574;6.980;2024-02-21T21:18:14;16.90;;;7.90;;
1887;SDS011;944;51.574;6.980;2024-02-21T21:20:50;16.37;;;7.90;;
1887;SDS011;944;51.574;6.980;2024-02-21T21:23:32;13.07;;;6.67;;
1887;SDS011;944;51.574;6.980;2024-02-21T21:26:06;15.30;;;7.10;;
1887;SDS011;944;51.574;6.980;2024-02-21T21:29:02;13.50;;;7.13;;
1887;SDS011;944;51.574;6.980;2024-02-21T21:32:01;15.07;;;7.73;;
1887;SDS011;944;51.574;6.980;2024-02-21T21:42:09;18.40;;;8.13;;
1887;SDS011;944;51.574;6.980;2024-02-21T21:48:26;13.00;;;6.60;;
1887;SDS011;944;51.574;6.980;2024-02-21T21:55:02;11.73;;;6.20;;
1887;SDS011;944;51.574;6.980;2024-02-21T22:02:17;14.63;;;6.60;;
1887;SDS011;944;51.574;6.980;2024-02-21T22:05:26;10.03;;;5.60;;
1887;SDS011;944;51.574;6.980;2024-02-21T22:19:45;15.43;;;7.10;;
1887;SDS011;944;51.574;6.980;2024-02-21T22:22:24;11.60;;;5.80;;
1887;SDS011;944;51.574;6.980;2024-02-21T22:25:26;12.60;;;7.70;;
1887;SDS011;944;51.574;6.980;2024-02-21T22:28:29;9.83;;;7.00;;
1887;SDS011;944;51.574;6.980;2024-02-21T22:31:29;11.10;;;6.10;;
1887;SDS011;944;51.574;6.980;2024-02-21T22:34:30;11.77;;;6.77;;
1887;SDS011;944;51.574;6.980;2024-02-21T22:45:31;12.07;;;6.93;;
1887;SDS011;944;51.574;6.980;2024-02-21T23:01:28;7.33;;;5.90;;
